createdAt,value
2023-03-17T00:01:55.000Z,-3.20
2023-03-17T00:04:58.272Z,-3.10
2023-03-17T00:08:16.305Z,-3.10
2023-03-17T00:11:19.600Z,-3.20
2023-03-17T00:14:23.308Z,-3.20
2023-03-17T00:17:26.077Z,-3.20
2023-03-17T00:20:32.661Z,-3.20
2023-03-17T00:23:36.676Z,-3.20
2023-03-17T00:26:41.399Z,-3.20
2023-03-17T00:29:44.592Z,-3.10
2023-03-17T00:32:52.851Z,-3.10
2023-03-17T00:35:57.598Z,-3.10
2023-03-17T00:39:01.852Z,-3.10
2023-03-17T00:42:04.930Z,-3.10
2023-03-17T00:45:08.646Z,-3.20
2023-03-17T00:48:17.564Z,-3.30
2023-03-17T00:51:21.496Z,-3.30
2023-03-17T00:54:25.281Z,-3.30
2023-03-17T00:57:28.990Z,-3.30
2023-03-17T01:00:32.896Z,-3.40
2023-03-17T01:03:36.601Z,-3.40
2023-03-17T01:06:40.102Z,-3.40
2023-03-17T01:09:44.213Z,-3.40
2023-03-17T01:12:47.512Z,-3.40
2023-03-17T01:15:52.455Z,-3.40
2023-03-17T01:18:55.802Z,-3.40
2023-03-17T01:21:59.029Z,-3.50
2023-03-17T01:25:02.429Z,-3.50
2023-03-17T01:28:06.244Z,-3.60
2023-03-17T01:31:09.873Z,-3.70
2023-03-17T01:34:12.933Z,-3.70
2023-03-17T01:37:16.119Z,-3.70
2023-03-17T01:40:25.762Z,-3.80
2023-03-17T01:43:31.111Z,-3.80
2023-03-17T01:46:36.156Z,-3.70
2023-03-17T01:49:40.054Z,-3.80
2023-03-17T01:52:43.040Z,-3.90
2023-03-17T01:55:47.562Z,-3.90
2023-03-17T01:58:54.959Z,-3.90
2023-03-17T02:02:06.552Z,-4.00
2023-03-17T02:05:12.090Z,-4.00
2023-03-17T02:08:17.125Z,-4.00
2023-03-17T02:11:21.340Z,-4.00
2023-03-17T02:14:24.737Z,-4.00
2023-03-17T02:17:29.262Z,-4.00
2023-03-17T02:20:32.865Z,-3.80
2023-03-17T02:23:36.981Z,-3.70
2023-03-17T02:26:39.971Z,-3.70
2023-03-17T02:29:46.628Z,-3.80
2023-03-17T02:32:49.854Z,-3.90
2023-03-17T02:35:53.281Z,-3.90
2023-03-17T02:38:57.959Z,-4.00
2023-03-17T02:42:00.847Z,-4.00
2023-03-17T02:45:04.277Z,-4.10
2023-03-17T02:48:07.538Z,-4.10
2023-03-17T02:51:11.242Z,-4.10
2023-03-17T02:54:16.791Z,-4.20
2023-03-17T02:57:20.194Z,-4.20
2023-03-17T03:00:23.484Z,-4.10
2023-03-17T03:03:27.051Z,-4.20
2023-03-17T03:06:29.971Z,-4.20
2023-03-17T03:09:33.164Z,-4.20
2023-03-17T03:12:36.662Z,-4.20
2023-03-17T03:15:42.717Z,-4.20
2023-03-17T03:18:46.017Z,-4.30
2023-03-17T03:21:49.925Z,-4.30
2023-03-17T03:24:53.223Z,-4.30
2023-03-17T03:27:56.409Z,-4.30
2023-03-17T03:30:59.523Z,-4.30
2023-03-17T03:34:03.002Z,-4.30
2023-03-17T03:37:06.399Z,-4.40
2023-03-17T03:40:10.438Z,-4.30
2023-03-17T03:43:22.994Z,-4.40
2023-03-17T03:46:27.167Z,-4.40
2023-03-17T03:49:30.234Z,-4.30
2023-03-17T03:52:33.519Z,-4.40
2023-03-17T03:55:36.708Z,-4.40
2023-03-17T03:58:39.797Z,-4.40
2023-03-17T04:01:42.887Z,-4.40
2023-03-17T04:04:47.322Z,-4.30
2023-03-17T04:07:50.297Z,-4.30
2023-03-17T04:10:53.597Z,-4.30
2023-03-17T04:13:56.682Z,-4.40
2023-03-17T04:16:59.771Z,-4.30
2023-03-17T04:20:04.295Z,-4.30
2023-03-17T04:23:08.308Z,-4.40
2023-03-17T04:26:12.853Z,-4.30
2023-03-17T04:29:16.330Z,-4.30
2023-03-17T04:32:19.828Z,-4.40
2023-03-17T04:35:23.524Z,-4.40
2023-03-17T04:38:26.422Z,-4.40
2023-03-17T04:41:29.816Z,-4.50
2023-03-17T04:44:33.313Z,-4.50
2023-03-17T04:47:36.303Z,-4.40
2023-03-17T04:50:39.392Z,-4.40
2023-03-17T04:53:43.094Z,-4.40
2023-03-17T04:56:46.085Z,-4.40
2023-03-17T04:59:49.174Z,-4.30
2023-03-17T05:02:52.376Z,-4.30
2023-03-17T05:05:55.883Z,-4.30
2023-03-17T05:08:59.062Z,-4.40
2023-03-17T05:12:02.145Z,-4.40
2023-03-17T05:15:05.848Z,-4.30
2023-03-17T05:18:09.353Z,-4.30
2023-03-17T05:21:12.855Z,-4.30
2023-03-17T05:24:16.248Z,-4.20
2023-03-17T05:27:19.241Z,-4.00
2023-03-17T05:30:22.228Z,-3.90
2023-03-17T05:33:25.824Z,-3.80
2023-03-17T05:36:29.024Z,-3.70
2023-03-17T05:39:33.028Z,-3.60
2023-03-17T05:42:36.117Z,-3.50
2023-03-17T05:45:39.628Z,-3.40
2023-03-17T05:48:42.815Z,-3.30
2023-03-17T05:51:45.905Z,-3.20
2023-03-17T05:54:49.708Z,-3.00
2023-03-17T05:57:52.695Z,-2.80
2023-03-17T06:00:56.523Z,-2.70
2023-03-17T06:04:02.158Z,-2.60
2023-03-17T06:07:06.268Z,-2.50
2023-03-17T06:10:10.382Z,-2.30
2023-03-17T06:13:13.680Z,-2.10
2023-03-17T06:16:16.941Z,-1.70
2023-03-17T06:19:20.163Z,-1.00
2023-03-17T06:22:23.465Z,-0.60
2023-03-17T06:25:26.442Z,-0.30
2023-03-17T06:28:29.427Z,-0.20
2023-03-17T06:31:32.366Z,0.10
2023-03-17T06:34:35.512Z,0.30
2023-03-17T06:37:38.498Z,0.60
2023-03-17T06:40:41.809Z,0.90
2023-03-17T06:43:45.099Z,1.10
2023-03-17T06:46:48.548Z,1.20
2023-03-17T06:49:51.781Z,1.40
2023-03-17T06:52:57.018Z,1.50
2023-03-17T06:56:00.215Z,1.70
2023-03-17T06:59:03.512Z,1.80
2023-03-17T07:02:06.613Z,1.90
2023-03-17T07:05:09.993Z,2.00
2023-03-17T07:08:12.982Z,2.20
2023-03-17T07:11:17.517Z,2.30
2023-03-17T07:14:21.036Z,2.50
2023-03-17T07:17:24.312Z,2.60
2023-03-17T07:20:28.820Z,2.90
2023-03-17T07:23:31.840Z,3.30
2023-03-17T07:26:35.117Z,3.60
2023-03-17T07:29:38.095Z,3.90
2023-03-17T07:32:42.047Z,4.20
2023-03-17T07:35:45.518Z,4.30
2023-03-17T07:38:49.004Z,4.40
2023-03-17T07:41:55.988Z,4.70
2023-03-17T07:44:59.935Z,5.20
2023-03-17T07:48:05.432Z,5.30
2023-03-17T07:51:17.349Z,5.50
2023-03-17T07:54:20.532Z,5.50
2023-03-17T07:57:23.805Z,5.80
2023-03-17T08:00:29.394Z,6.30
2023-03-17T08:03:33.183Z,6.30
2023-03-17T08:06:36.376Z,6.30
2023-03-17T08:09:40.081Z,6.80
2023-03-17T08:12:43.822Z,7.20
2023-03-17T08:15:47.501Z,7.30
2023-03-17T08:18:50.943Z,7.40
2023-03-17T08:21:54.435Z,7.80
2023-03-17T08:24:57.480Z,8.20
2023-03-17T08:28:00.982Z,8.10
2023-03-17T08:31:15.559Z,8.10
2023-03-17T08:34:18.326Z,7.80
2023-03-17T08:37:22.751Z,8.00
2023-03-17T08:40:25.840Z,8.10
2023-03-17T08:43:29.209Z,8.40
2023-03-17T08:46:33.390Z,8.70
2023-03-17T08:49:37.280Z,9.00
2023-03-17T08:52:41.177Z,8.60
2023-03-17T08:55:44.473Z,8.70
2023-03-17T08:58:48.791Z,9.10
2023-03-17T09:01:51.997Z,9.20
2023-03-17T09:04:55.589Z,9.40
2023-03-17T09:07:58.756Z,9.30
2023-03-17T09:11:05.558Z,9.10
2023-03-17T09:14:09.885Z,9.40
2023-03-17T09:17:14.720Z,9.40
2023-03-17T09:20:17.808Z,9.50
2023-03-17T09:23:21.193Z,9.40
2023-03-17T09:26:26.140Z,9.50
2023-03-17T09:29:29.442Z,9.60
2023-03-17T09:32:33.177Z,9.90
2023-03-17T09:35:36.884Z,9.70
2023-03-17T09:38:40.141Z,10.00
2023-03-17T09:41:57.466Z,9.90
2023-03-17T09:45:15.917Z,9.70
2023-03-17T09:48:58.543Z,9.70
2023-03-17T09:52:01.934Z,10.20
2023-03-17T09:55:09.347Z,10.80
2023-03-17T09:58:12.933Z,10.30
2023-03-17T10:01:16.025Z,10.20
2023-03-17T10:04:19.317Z,10.30
2023-03-17T10:07:41.455Z,10.30
2023-03-17T10:10:48.533Z,10.00
2023-03-17T10:14:24.095Z,10.60
2023-03-17T10:17:36.086Z,10.00
2023-03-17T10:20:51.455Z,10.80
2023-03-17T10:23:55.698Z,10.80
2023-03-17T10:27:05.038Z,10.80
2023-03-17T10:30:22.770Z,11.00
2023-03-17T10:33:26.988Z,11.30
2023-03-17T10:36:38.992Z,11.40
2023-03-17T10:39:51.529Z,11.20
2023-03-17T10:43:13.637Z,11.20
2023-03-17T10:46:26.128Z,11.70
2023-03-17T10:49:37.333Z,11.70
2023-03-17T10:52:41.340Z,11.80
2023-03-17T10:55:50.272Z,11.80
2023-03-17T10:58:55.203Z,11.50
2023-03-17T11:02:01.065Z,11.40
2023-03-17T11:05:26.886Z,12.00
2023-03-17T11:08:35.936Z,12.20
2023-03-17T11:11:50.889Z,12.00
2023-03-17T11:15:04.119Z,11.90
2023-03-17T11:18:20.320Z,12.10
2023-03-17T11:21:32.328Z,12.30
2023-03-17T11:24:46.372Z,12.40
2023-03-17T11:28:22.542Z,13.90
2023-03-17T11:31:34.988Z,12.80
2023-03-17T11:34:48.384Z,13.00
2023-03-17T11:38:07.445Z,12.60
2023-03-17T11:41:28.256Z,12.70
2023-03-17T11:44:49.281Z,13.10
2023-03-17T11:48:15.709Z,12.90
2023-03-17T11:51:45.525Z,12.90
2023-03-17T11:55:18.105Z,12.80
2023-03-17T11:58:37.283Z,13.30
2023-03-17T12:01:59.923Z,12.60
2023-03-17T12:05:10.387Z,12.30
2023-03-17T12:08:47.071Z,12.20
2023-03-17T12:11:51.999Z,12.20
2023-03-17T12:14:56.937Z,12.40
2023-03-17T12:18:12.829Z,12.30
2023-03-17T12:21:31.276Z,12.80
2023-03-17T12:25:05.704Z,13.40
2023-03-17T12:28:23.376Z,13.30
2023-03-17T12:31:32.437Z,12.60
2023-03-17T12:34:49.612Z,12.50
2023-03-17T12:37:53.811Z,12.50
2023-03-17T12:41:19.636Z,12.70
2023-03-17T12:44:26.524Z,12.70
2023-03-17T12:47:52.650Z,12.30
2023-03-17T12:51:07.314Z,12.20
2023-03-17T12:54:45.317Z,12.30
2023-03-17T12:58:01.013Z,12.40
2023-03-17T13:01:25.954Z,12.80
2023-03-17T13:04:37.604Z,12.90
2023-03-17T13:07:49.312Z,12.80
2023-03-17T13:11:12.573Z,13.00
2023-03-17T13:14:27.330Z,12.90
2023-03-17T13:17:31.681Z,13.10
2023-03-17T13:20:40.589Z,13.10
2023-03-17T13:23:45.306Z,13.30
2023-03-17T13:26:55.174Z,12.90
2023-03-17T13:30:00.501Z,12.70
2023-03-17T13:33:12.497Z,13.20
2023-03-17T13:36:34.230Z,13.30
2023-03-17T13:39:56.267Z,13.40
2023-03-17T13:43:37.049Z,13.20
2023-03-17T13:46:44.281Z,13.40
2023-03-17T13:49:54.389Z,13.70
2023-03-17T13:53:03.215Z,13.50
2023-03-17T13:56:36.716Z,13.60
2023-03-17T13:59:40.022Z,14.60
2023-03-17T14:02:44.984Z,14.50
2023-03-17T14:05:50.808Z,14.90
2023-03-17T14:09:02.912Z,14.90
2023-03-17T14:12:23.511Z,14.80
2023-03-17T14:15:48.826Z,14.60
2023-03-17T14:18:58.574Z,14.70
2023-03-17T14:22:20.200Z,15.10
2023-03-17T14:25:37.544Z,15.10
2023-03-17T14:28:40.923Z,15.10
2023-03-17T14:31:53.365Z,15.50
2023-03-17T14:34:59.701Z,15.80
2023-03-17T14:38:03.207Z,15.70
2023-03-17T14:41:16.025Z,14.90
2023-03-17T14:44:19.013Z,15.40
2023-03-17T14:47:26.405Z,15.50
2023-03-17T14:50:33.419Z,15.10
2023-03-17T14:53:41.400Z,15.00
2023-03-17T14:56:58.107Z,15.40
2023-03-17T15:00:38.194Z,15.10
2023-03-17T15:03:57.334Z,15.50
2023-03-17T15:07:07.901Z,14.60
2023-03-17T15:10:22.561Z,14.30
2023-03-17T15:13:27.701Z,14.50
2023-03-17T15:16:34.040Z,15.40
2023-03-17T15:20:00.316Z,16.10
2023-03-17T15:23:18.554Z,16.70
2023-03-17T15:26:33.423Z,16.40
2023-03-17T15:29:36.723Z,15.00
2023-03-17T15:32:40.804Z,15.00
2023-03-17T15:35:44.349Z,15.40
2023-03-17T15:38:47.840Z,15.30
2023-03-17T15:41:51.030Z,15.10
2023-03-17T15:44:54.532Z,14.60
2023-03-17T15:47:57.522Z,14.40
2023-03-17T15:51:01.747Z,14.50
2023-03-17T15:54:05.150Z,14.20
2023-03-17T15:57:13.755Z,14.50
2023-03-17T16:00:24.012Z,14.00
2023-03-17T16:03:41.846Z,13.60
2023-03-17T16:06:44.844Z,12.80
2023-03-17T16:09:48.848Z,12.30
2023-03-17T16:12:52.351Z,11.60
2023-03-17T16:16:01.154Z,11.30
2023-03-17T16:19:06.418Z,11.00
2023-03-17T16:22:34.292Z,10.70
2023-03-17T16:25:37.993Z,10.50
2023-03-17T16:28:41.189Z,10.30
2023-03-17T16:31:49.195Z,10.20
2023-03-17T16:34:52.515Z,10.00
2023-03-17T16:37:55.280Z,9.80
2023-03-17T16:41:23.052Z,9.70
2023-03-17T16:44:26.452Z,9.40
2023-03-17T16:47:29.841Z,9.20
2023-03-17T16:50:34.096Z,8.80
2023-03-17T16:53:37.256Z,8.60
2023-03-17T16:56:41.755Z,8.40
2023-03-17T16:59:45.489Z,8.00
2023-03-17T17:02:50.442Z,7.60
2023-03-17T17:05:53.820Z,7.40
2023-03-17T17:08:57.218Z,7.10
2023-03-17T17:11:59.912Z,6.90
2023-03-17T17:15:03.301Z,6.70
2023-03-17T17:18:14.105Z,6.50
2023-03-17T17:21:18.083Z,6.30
2023-03-17T17:24:22.159Z,6.00
2023-03-17T17:27:26.516Z,5.90
2023-03-17T17:30:31.757Z,5.80
2023-03-17T17:33:37.917Z,5.70
2023-03-17T17:36:42.091Z,5.60
2023-03-17T17:39:46.762Z,5.40
2023-03-17T17:42:52.722Z,5.30
2023-03-17T17:45:57.041Z,5.20
2023-03-17T17:49:01.279Z,5.10
2023-03-17T17:52:07.835Z,5.10
2023-03-17T17:55:12.253Z,5.00
2023-03-17T17:58:25.180Z,5.00
2023-03-17T18:01:28.594Z,4.90
2023-03-17T18:04:32.740Z,5.00
2023-03-17T18:07:37.311Z,4.90
2023-03-17T18:10:41.540Z,4.80
2023-03-17T18:13:45.930Z,4.90
2023-03-17T18:16:50.330Z,4.90
2023-03-17T18:19:54.279Z,5.20
2023-03-17T18:22:58.500Z,5.40
2023-03-17T18:26:03.644Z,5.30
2023-03-17T18:29:09.802Z,5.30
2023-03-17T18:32:14.936Z,5.40
2023-03-17T18:35:22.389Z,5.40
2023-03-17T18:38:28.080Z,5.40
2023-03-17T18:41:34.657Z,5.40
2023-03-17T18:44:40.922Z,5.50
2023-03-17T18:47:45.442Z,5.50
2023-03-17T18:50:49.456Z,5.50
2023-03-17T18:53:53.878Z,5.50
2023-03-17T18:56:59.638Z,5.50
2023-03-17T19:00:05.899Z,5.20
2023-03-17T19:03:09.938Z,4.80
2023-03-17T19:06:17.300Z,4.50
2023-03-17T19:09:21.001Z,4.40
2023-03-17T19:12:25.116Z,4.20
2023-03-17T19:15:29.537Z,4.10
2023-03-17T19:18:36.829Z,4.00
2023-03-17T19:21:41.141Z,3.90
2023-03-17T19:24:46.180Z,4.10
2023-03-17T19:27:49.988Z,4.20
2023-03-17T19:30:56.625Z,4.20
2023-03-17T19:34:00.369Z,3.90
2023-03-17T19:37:05.102Z,3.70
2023-03-17T19:40:12.486Z,3.60
2023-03-17T19:43:32.527Z,3.60
2023-03-17T19:46:43.259Z,3.50
2023-03-17T19:49:47.976Z,3.50
2023-03-17T19:52:53.934Z,3.50
2023-03-17T19:55:57.946Z,3.40
2023-03-17T19:59:05.438Z,3.40
2023-03-17T20:02:14.981Z,3.30
2023-03-17T20:05:19.094Z,3.60
2023-03-17T20:08:23.295Z,4.20
2023-03-17T20:11:28.347Z,4.40
2023-03-17T20:14:32.364Z,4.60
2023-03-17T20:17:37.570Z,4.70
2023-03-17T20:20:48.476Z,4.80
2023-03-17T20:23:53.305Z,4.90
2023-03-17T20:26:58.954Z,5.00
2023-03-17T20:30:04.199Z,4.80
2023-03-17T20:33:11.338Z,4.60
2023-03-17T20:36:15.600Z,4.50
2023-03-17T20:39:21.965Z,4.50
2023-03-17T20:42:27.619Z,4.50
2023-03-17T20:45:31.629Z,4.50
2023-03-17T20:48:38.109Z,4.50
2023-03-17T20:51:42.314Z,4.50
2023-03-17T20:54:51.529Z,4.50
2023-03-17T20:57:55.665Z,4.50
2023-03-17T21:01:02.547Z,4.40
2023-03-17T21:04:10.043Z,4.40
2023-03-17T21:07:16.711Z,4.50
2023-03-17T21:10:21.543Z,4.30
2023-03-17T21:13:26.785Z,4.20
2023-03-17T21:16:30.718Z,4.20
2023-03-17T21:19:34.410Z,4.10
2023-03-17T21:22:38.513Z,4.10
2023-03-17T21:25:42.422Z,4.10
2023-03-17T21:28:46.331Z,4.10
2023-03-17T21:31:49.769Z,4.10
2023-03-17T21:34:54.790Z,4.00
2023-03-17T21:37:59.082Z,4.00
2023-03-17T21:41:34.648Z,4.10
2023-03-17T21:44:37.932Z,4.10
2023-03-17T21:47:42.144Z,4.00
2023-03-17T21:50:45.646Z,4.00
2023-03-17T21:53:49.564Z,4.00
2023-03-17T21:56:53.258Z,4.00
2023-03-17T21:59:56.658Z,4.10
2023-03-17T22:03:01.375Z,4.20
2023-03-17T22:06:06.013Z,4.00
2023-03-17T22:09:11.260Z,4.00
2023-03-17T22:12:14.278Z,4.10
2023-03-17T22:15:18.050Z,4.10
2023-03-17T22:18:21.542Z,3.90
2023-03-17T22:21:25.255Z,3.80
2023-03-17T22:24:28.449Z,3.80
2023-03-17T22:27:32.052Z,3.70
2023-03-17T22:30:39.962Z,3.70
2023-03-17T22:33:43.148Z,3.70
2023-03-17T22:36:46.341Z,3.70
2023-03-17T22:39:49.437Z,3.70
2023-03-17T22:42:55.083Z,3.80
2023-03-17T22:45:58.132Z,3.70
2023-03-17T22:49:00.768Z,3.60
2023-03-17T22:52:04.253Z,3.50
2023-03-17T22:55:08.061Z,3.60
2023-03-17T22:58:11.254Z,3.50
2023-03-17T23:01:17.380Z,3.40
2023-03-17T23:04:20.311Z,3.40
2023-03-17T23:07:23.596Z,3.40
2023-03-17T23:10:26.891Z,3.30
2023-03-17T23:13:30.698Z,3.30
2023-03-17T23:16:33.918Z,3.30
2023-03-17T23:19:36.678Z,3.30
2023-03-17T23:22:40.073Z,3.40
2023-03-17T23:25:43.907Z,3.50
2023-03-17T23:28:48.090Z,3.70
2023-03-17T23:31:51.085Z,3.90
2023-03-17T23:34:54.277Z,3.90
2023-03-17T23:37:57.467Z,4.10
2023-03-17T23:41:00.864Z,4.10
2023-03-17T23:44:04.774Z,4.10
2023-03-17T23:47:08.064Z,4.10
2023-03-17T23:50:12.695Z,4.20
2023-03-17T23:53:16.818Z,4.00
2023-03-17T23:56:20.820Z,4.10
2023-03-17T23:59:24.117Z,4.00
